createdAt,value
2022-11-07T00:02:17.011Z,10.03
2022-11-07T00:04:47.977Z,3.50
2022-11-07T00:07:17.332Z,6.47
2022-11-07T00:09:47.634Z,5.40
2022-11-07T00:12:18.236Z,6.97
2022-11-07T00:14:46.644Z,4.07
2022-11-07T00:17:15.963Z,6.47
2022-11-07T00:19:44.337Z,3.47
2022-11-07T00:22:16.158Z,2.83
2022-11-07T00:24:44.651Z,3.77
2022-11-07T00:27:14.146Z,1.90
2022-11-07T00:29:42.893Z,3.40
2022-11-07T00:32:11.255Z,2.43
2022-11-07T00:34:40.677Z,3.60
2022-11-07T00:37:09.114Z,3.07
2022-11-07T00:39:39.113Z,2.73
2022-11-07T00:42:07.490Z,4.20
2022-11-07T00:44:35.892Z,5.93
2022-11-07T00:47:04.199Z,6.83
2022-11-07T00:49:32.480Z,6.73
2022-11-07T00:52:00.751Z,5.77
2022-11-07T00:54:28.981Z,4.93
2022-11-07T00:56:58.696Z,7.37
2022-11-07T00:59:27.052Z,10.57
2022-11-07T01:01:55.430Z,8.90
2022-11-07T01:04:41.140Z,7.67
2022-11-07T01:07:10.518Z,7.73
2022-11-07T01:09:38.837Z,7.70
2022-11-07T01:12:08.772Z,10.83
2022-11-07T01:14:37.292Z,7.87
2022-11-07T01:17:05.758Z,7.40
2022-11-07T01:19:34.254Z,5.90
2022-11-07T01:22:02.725Z,6.70
2022-11-07T01:24:31.118Z,6.33
2022-11-07T01:26:59.825Z,6.40
2022-11-07T01:29:29.966Z,6.20
2022-11-07T01:31:58.544Z,5.90
2022-11-07T01:34:27.303Z,7.30
2022-11-07T01:36:55.728Z,6.90
2022-11-07T01:39:24.121Z,6.83
2022-11-07T01:41:52.632Z,5.20
2022-11-07T01:44:59.416Z,6.57
2022-11-07T01:48:34.958Z,5.50
2022-11-07T01:51:05.762Z,4.63
2022-11-07T01:53:36.407Z,5.87
2022-11-07T01:56:11.025Z,4.57
2022-11-07T01:58:41.771Z,4.20
2022-11-07T02:01:13.753Z,4.23
2022-11-07T02:03:44.344Z,5.67
2022-11-07T02:06:26.911Z,4.87
2022-11-07T02:08:58.565Z,7.67
2022-11-07T02:11:28.985Z,4.70
2022-11-07T02:13:59.462Z,4.97
2022-11-07T02:16:33.414Z,3.87
2022-11-07T02:19:09.056Z,4.57
2022-11-07T02:21:48.096Z,5.37
2022-11-07T02:24:29.432Z,4.80
2022-11-07T02:27:02.804Z,3.83
2022-11-07T02:29:41.278Z,4.00
2022-11-07T02:32:14.658Z,3.43
2022-11-07T02:34:43.452Z,4.63
2022-11-07T02:37:20.134Z,4.30
2022-11-07T02:39:56.178Z,4.53
2022-11-07T02:42:43.829Z,4.33
2022-11-07T02:45:23.810Z,5.13
2022-11-07T02:47:55.991Z,3.60
2022-11-07T02:50:28.888Z,5.70
2022-11-07T02:53:01.448Z,3.50
2022-11-07T02:55:37.380Z,2.60
2022-11-07T02:58:07.760Z,3.80
2022-11-07T03:00:37.636Z,3.43
2022-11-07T03:03:14.379Z,2.53
2022-11-07T03:05:52.620Z,3.03
2022-11-07T03:08:35.414Z,5.30
2022-11-07T03:11:10.405Z,3.00
2022-11-07T03:13:38.895Z,4.20
2022-11-07T03:16:14.012Z,3.70
2022-11-07T03:18:48.375Z,3.97
2022-11-07T03:21:19.660Z,2.57
2022-11-07T03:23:57.860Z,2.93
2022-11-07T03:26:31.280Z,3.27
2022-11-07T03:29:15.232Z,2.83
2022-11-07T03:32:16.221Z,4.37
2022-11-07T03:35:01.981Z,3.77
2022-11-07T03:37:39.717Z,3.30
2022-11-07T03:40:13.795Z,3.13
2022-11-07T03:42:49.326Z,3.57
2022-11-07T03:45:19.771Z,2.70
2022-11-07T03:47:53.423Z,3.00
2022-11-07T03:50:30.781Z,3.57
2022-11-07T03:53:03.664Z,2.30
2022-11-07T03:55:35.568Z,3.60
2022-11-07T03:58:22.313Z,3.03
2022-11-07T04:00:59.963Z,2.23
2022-11-07T04:04:13.182Z,3.53
2022-11-07T04:06:50.611Z,4.07
2022-11-07T04:09:20.336Z,4.10
2022-11-07T04:12:07.333Z,3.87
2022-11-07T04:14:55.144Z,3.80
2022-11-07T04:17:25.316Z,3.13
2022-11-07T04:19:58.058Z,4.03
2022-11-07T04:22:29.919Z,2.33
2022-11-07T04:25:01.865Z,3.43
2022-11-07T04:27:50.630Z,2.53
2022-11-07T04:30:29.693Z,3.13
2022-11-07T04:34:18.267Z,3.30
2022-11-07T04:36:43.518Z,2.93
2022-11-07T04:39:13.601Z,3.07
2022-11-07T04:42:22.144Z,5.70
2022-11-07T04:44:59.749Z,2.47
2022-11-07T04:47:34.186Z,3.33
2022-11-07T04:54:43.788Z,2.23
2022-11-07T04:57:16.453Z,2.83
2022-11-07T04:59:46.264Z,2.60
2022-11-07T05:02:15.213Z,2.60
2022-11-07T05:04:45.973Z,2.97
2022-11-07T05:07:15.302Z,2.20
2022-11-07T05:09:51.549Z,2.53
2022-11-07T05:12:20.856Z,3.00
2022-11-07T05:14:52.984Z,3.10
2022-11-07T05:17:26.854Z,2.67
2022-11-07T05:19:58.000Z,2.57
2022-11-07T05:22:44.351Z,3.13
2022-11-07T05:25:12.652Z,1.60
2022-11-07T05:28:02.425Z,3.37
2022-11-07T05:30:33.666Z,2.93
2022-11-07T05:33:09.659Z,5.20
2022-11-07T05:35:39.931Z,3.17
2022-11-07T05:38:08.753Z,3.07
2022-11-07T05:40:38.269Z,3.33
2022-11-07T05:43:08.909Z,4.20
2022-11-07T05:45:38.759Z,2.90
2022-11-07T05:48:08.866Z,3.67
2022-11-07T05:50:37.932Z,5.57
2022-11-07T05:53:08.472Z,3.80
2022-11-07T05:55:37.096Z,5.00
2022-11-07T05:58:11.259Z,2.57
2022-11-07T06:00:39.716Z,6.03
2022-11-07T06:03:08.332Z,3.47
2022-11-07T06:05:38.144Z,2.63
2022-11-07T06:08:09.378Z,2.43
2022-11-07T06:10:38.008Z,1.97
2022-11-07T06:13:08.171Z,1.50
2022-11-07T06:15:38.412Z,2.67
2022-11-07T06:18:09.469Z,2.40
2022-11-07T06:20:38.040Z,3.90
2022-11-07T06:23:08.176Z,2.70
2022-11-07T06:25:37.457Z,2.63
2022-11-07T06:28:07.845Z,2.73
2022-11-07T06:30:36.814Z,3.47
2022-11-07T06:33:06.176Z,2.03
2022-11-07T06:35:35.555Z,2.77
2022-11-07T06:38:04.661Z,4.93
2022-11-07T06:40:34.705Z,12.70
2022-11-07T06:43:09.333Z,4.53
2022-11-07T06:45:38.163Z,4.43
2022-11-07T06:48:07.236Z,6.40
2022-11-07T06:50:36.029Z,2.90
2022-11-07T06:53:04.889Z,3.17
2022-11-07T06:55:35.435Z,2.30
2022-11-07T06:58:06.703Z,2.77
2022-11-07T07:00:37.072Z,2.57
2022-11-07T07:03:05.910Z,2.27
2022-11-07T07:05:34.616Z,2.10
2022-11-07T07:08:03.157Z,2.93
2022-11-07T07:10:31.766Z,2.60
2022-11-07T07:13:02.267Z,4.17
2022-11-07T07:15:47.513Z,4.43
2022-11-07T07:18:18.916Z,2.60
2022-11-07T07:20:47.616Z,2.90
2022-11-07T07:23:16.121Z,1.63
2022-11-07T07:25:44.715Z,3.33
2022-11-07T07:28:14.704Z,3.07
2022-11-07T07:30:47.166Z,3.90
2022-11-07T07:33:19.243Z,3.43
2022-11-07T07:35:47.579Z,2.17
2022-11-07T07:38:15.794Z,4.60
2022-11-07T07:40:44.051Z,2.43
2022-11-07T07:43:12.552Z,2.17
2022-11-07T07:45:42.423Z,3.20
2022-11-07T07:48:10.655Z,2.40
2022-11-07T07:50:38.952Z,1.73
2022-11-07T07:53:09.207Z,4.57
2022-11-07T07:55:37.755Z,3.40
2022-11-07T07:58:06.069Z,4.30
2022-11-07T08:00:34.395Z,2.03
2022-11-07T08:03:05.435Z,3.40
2022-11-07T08:05:33.794Z,3.00
2022-11-07T08:08:02.330Z,2.70
2022-11-07T08:10:45.901Z,2.90
2022-11-07T08:13:14.423Z,8.70
2022-11-07T08:15:42.962Z,5.23
2022-11-07T08:18:12.657Z,5.67
2022-11-07T08:20:40.958Z,5.90
2022-11-07T08:23:16.132Z,3.23
2022-11-07T08:25:49.749Z,3.57
2022-11-07T08:28:18.282Z,7.00
2022-11-07T08:30:47.522Z,4.50
2022-11-07T08:33:17.956Z,3.93
2022-11-07T08:35:46.621Z,3.80
2022-11-07T08:38:14.867Z,4.30
2022-11-07T08:40:43.222Z,4.00
2022-11-07T08:43:11.474Z,4.83
2022-11-07T08:45:39.745Z,2.50
2022-11-07T08:48:08.204Z,2.73
2022-11-07T08:50:37.927Z,2.73
2022-11-07T08:53:06.329Z,3.43
2022-11-07T08:55:34.643Z,4.07
2022-11-07T08:58:04.617Z,3.13
2022-11-07T09:00:34.469Z,2.93
2022-11-07T09:05:55.002Z,2.67
2022-11-07T09:08:23.813Z,3.33
2022-11-07T09:10:52.477Z,2.87
2022-11-07T09:13:21.504Z,1.10
2022-11-07T09:15:51.845Z,1.20
2022-11-07T09:18:21.152Z,2.80
2022-11-07T09:20:49.923Z,1.97
2022-11-07T09:23:20.565Z,2.50
2022-11-07T09:25:49.647Z,2.60
2022-11-07T09:28:18.427Z,1.67
2022-11-07T09:30:47.242Z,1.30
2022-11-07T09:33:16.113Z,3.30
2022-11-07T09:35:45.031Z,3.40
2022-11-07T09:38:14.713Z,1.60
2022-11-07T09:40:54.655Z,7.50
2022-11-07T09:43:35.689Z,1.63
2022-11-07T09:46:18.412Z,5.70
2022-11-07T09:48:52.513Z,3.90
2022-11-07T09:51:28.834Z,4.37
2022-11-07T09:54:01.618Z,1.23
2022-11-07T09:56:34.436Z,2.73
2022-11-07T09:59:13.784Z,3.30
2022-11-07T10:01:43.412Z,3.17
2022-11-07T10:04:24.655Z,1.87
2022-11-07T10:06:58.966Z,2.20
2022-11-07T10:09:38.185Z,2.77
2022-11-07T10:12:19.465Z,4.87
2022-11-07T10:14:59.520Z,2.53
2022-11-07T10:17:35.772Z,2.43
2022-11-07T10:20:12.987Z,3.43
2022-11-07T10:23:00.435Z,1.83
2022-11-07T10:25:36.885Z,3.10
2022-11-07T10:28:20.210Z,1.67
2022-11-07T10:30:52.257Z,2.87
2022-11-07T10:33:38.706Z,2.13
2022-11-07T10:36:18.580Z,3.27
2022-11-07T10:38:47.565Z,1.87
2022-11-07T10:41:18.229Z,2.30
2022-11-07T10:43:53.346Z,2.47
2022-11-07T10:46:27.022Z,2.00
2022-11-07T10:48:58.205Z,2.00
2022-11-07T10:51:38.382Z,2.33
2022-11-07T10:54:07.623Z,5.07
2022-11-07T10:56:46.925Z,1.47
2022-11-07T10:59:30.131Z,1.73
2022-11-07T11:02:02.922Z,2.50
2022-11-07T11:04:34.021Z,4.27
2022-11-07T11:07:04.912Z,2.20
2022-11-07T11:09:35.806Z,1.80
2022-11-07T11:12:12.996Z,0.70
2022-11-07T11:14:43.507Z,1.93
2022-11-07T11:17:25.787Z,1.90
2022-11-07T11:19:55.683Z,2.10
2022-11-07T11:22:29.296Z,1.67
2022-11-07T11:25:05.141Z,0.90
2022-11-07T11:27:36.421Z,2.03
2022-11-07T11:30:08.889Z,2.03
2022-11-07T11:32:42.530Z,0.90
2022-11-07T11:35:25.968Z,0.80
2022-11-07T11:38:00.527Z,1.87
2022-11-07T11:40:34.187Z,1.33
2022-11-07T11:43:15.909Z,1.87
2022-11-07T11:46:00.625Z,0.87
2022-11-07T11:48:35.556Z,1.70
2022-11-07T11:51:08.018Z,0.37
2022-11-07T11:53:36.760Z,1.37
2022-11-07T11:56:24.762Z,1.23
2022-11-07T11:59:03.181Z,1.83
2022-11-07T12:01:40.889Z,3.40
2022-11-07T12:04:34.422Z,1.43
2022-11-07T12:07:12.275Z,1.57
2022-11-07T12:09:47.210Z,1.83
2022-11-07T12:12:27.649Z,1.57
2022-11-07T12:15:19.398Z,0.63
2022-11-07T12:17:55.066Z,0.60
2022-11-07T12:20:28.336Z,2.17
2022-11-07T12:23:13.715Z,1.30
2022-11-07T12:25:47.621Z,1.00
2022-11-07T12:28:32.256Z,1.43
2022-11-07T12:31:14.130Z,1.10
2022-11-07T12:33:50.676Z,2.00
2022-11-07T12:36:34.279Z,0.87
2022-11-07T12:39:36.799Z,0.50
2022-11-07T12:42:09.787Z,0.43
2022-11-07T12:44:56.190Z,1.27
2022-11-07T12:47:41.217Z,2.10
2022-11-07T12:50:29.816Z,1.07
2022-11-07T12:53:17.321Z,0.30
2022-11-07T12:55:50.497Z,0.70
2022-11-07T12:58:23.689Z,1.63
2022-11-07T13:00:53.521Z,1.23
2022-11-07T13:03:50.718Z,0.87
2022-11-07T13:06:28.889Z,1.30
2022-11-07T13:09:08.307Z,1.03
2022-11-07T13:11:46.480Z,1.20
2022-11-07T13:14:24.833Z,2.47
2022-11-07T13:17:06.089Z,0.37
2022-11-07T13:19:36.313Z,0.90
2022-11-07T13:22:08.483Z,0.53
2022-11-07T13:24:51.360Z,2.20
2022-11-07T13:27:24.537Z,1.03
2022-11-07T13:29:53.630Z,1.80
2022-11-07T13:32:22.338Z,0.87
2022-11-07T13:34:57.164Z,0.97
2022-11-07T13:37:29.639Z,1.57
2022-11-07T13:40:03.290Z,1.00
2022-11-07T13:42:35.114Z,0.80
2022-11-07T13:45:19.389Z,1.57
2022-11-07T13:47:49.186Z,1.13
2022-11-07T13:50:23.192Z,1.33
2022-11-07T13:53:00.598Z,1.53
2022-11-07T13:55:35.743Z,0.70
2022-11-07T13:58:11.443Z,1.20
2022-11-07T14:00:40.409Z,1.20
2022-11-07T14:03:24.151Z,0.90
2022-11-07T14:05:53.174Z,2.13
2022-11-07T14:08:27.170Z,1.90
2022-11-07T14:10:55.908Z,1.90
2022-11-07T14:13:29.027Z,1.10
2022-11-07T14:16:00.791Z,1.77
2022-11-07T14:18:32.900Z,0.93
2022-11-07T14:21:01.519Z,1.30
2022-11-07T14:23:33.849Z,1.97
2022-11-07T14:26:03.772Z,3.17
2022-11-07T14:28:36.169Z,0.67
2022-11-07T14:31:15.052Z,1.93
2022-11-07T14:33:49.978Z,1.37
2022-11-07T14:36:19.496Z,1.93
2022-11-07T14:38:50.810Z,2.70
2022-11-07T14:41:19.856Z,2.17
2022-11-07T14:43:49.032Z,3.13
2022-11-07T14:46:20.544Z,2.83
2022-11-07T14:48:51.507Z,2.03
2022-11-07T14:51:24.520Z,4.43
2022-11-07T14:54:00.689Z,2.77
2022-11-07T14:56:33.037Z,2.90
2022-11-07T14:59:01.743Z,4.20
2022-11-07T15:01:32.490Z,1.63
2022-11-07T15:04:02.768Z,1.63
2022-11-07T15:06:34.526Z,3.90
2022-11-07T15:09:07.287Z,2.77
2022-11-07T15:11:37.287Z,1.47
2022-11-07T15:14:08.136Z,1.50
2022-11-07T15:16:40.198Z,3.93
2022-11-07T15:19:11.164Z,2.13
2022-11-07T15:21:52.080Z,2.30
2022-11-07T15:24:34.409Z,3.40
2022-11-07T15:27:04.239Z,4.50
2022-11-07T15:29:34.134Z,3.67
2022-11-07T15:32:07.810Z,3.03
2022-11-07T15:34:58.631Z,3.63
2022-11-07T15:37:26.951Z,2.00
2022-11-07T15:39:56.572Z,7.77
2022-11-07T15:42:24.849Z,4.57
2022-11-07T15:44:53.023Z,4.20
2022-11-07T15:47:23.549Z,6.33
2022-11-07T15:49:52.104Z,11.10
2022-11-07T15:52:20.317Z,10.77
2022-11-07T15:54:48.547Z,7.00
2022-11-07T15:57:18.989Z,2.67
2022-11-07T15:59:47.363Z,6.13
2022-11-07T16:02:18.228Z,4.13
2022-11-07T16:04:46.552Z,2.60
2022-11-07T16:07:18.698Z,4.30
2022-11-07T16:09:48.925Z,4.30
2022-11-07T16:12:19.808Z,9.53
2022-11-07T16:14:48.030Z,4.70
2022-11-07T16:17:18.239Z,3.03
2022-11-07T16:19:46.667Z,3.60
2022-11-07T16:22:16.393Z,3.07
2022-11-07T16:24:44.543Z,3.20
2022-11-07T16:27:17.345Z,3.43
2022-11-07T16:29:47.354Z,3.60
2022-11-07T16:32:18.495Z,2.60
2022-11-07T16:34:47.808Z,1.90
2022-11-07T16:37:16.399Z,1.73
2022-11-07T16:39:44.665Z,1.83
2022-11-07T16:42:15.914Z,3.30
2022-11-07T16:44:44.222Z,3.67
2022-11-07T16:47:17.067Z,6.30
2022-11-07T16:49:45.299Z,4.17
2022-11-07T16:52:16.198Z,4.50
2022-11-07T16:54:44.443Z,3.60
2022-11-07T16:57:13.616Z,1.87
2022-11-07T16:59:41.992Z,2.90
2022-11-07T17:02:21.150Z,2.03
2022-11-07T17:04:50.962Z,2.10
2022-11-07T17:07:22.755Z,2.07
2022-11-07T17:09:51.678Z,2.37
2022-11-07T17:12:21.843Z,2.73
2022-11-07T17:14:51.047Z,2.10
2022-11-07T17:17:21.062Z,2.67
2022-11-07T17:19:49.357Z,1.93
2022-11-07T17:22:17.883Z,6.83
2022-11-07T17:24:47.344Z,3.13
2022-11-07T17:27:21.914Z,4.20
2022-11-07T17:29:50.515Z,3.53
2022-11-07T17:32:20.133Z,3.63
2022-11-07T17:35:10.690Z,3.50
2022-11-07T17:37:38.316Z,2.80
2022-11-07T17:40:07.539Z,5.00
2022-11-07T17:42:38.301Z,3.40
2022-11-07T17:45:07.901Z,3.63
2022-11-07T17:47:37.456Z,4.23
2022-11-07T17:50:06.146Z,3.87
2022-11-07T17:52:34.524Z,3.30
2022-11-07T17:55:02.748Z,5.30
2022-11-07T17:57:30.933Z,3.23
2022-11-07T17:59:59.171Z,2.73
2022-11-07T18:02:27.521Z,3.27
2022-11-07T18:04:57.447Z,4.00
2022-11-07T18:07:25.693Z,4.33
2022-11-07T18:09:54.915Z,2.63
2022-11-07T18:12:23.476Z,2.80
2022-11-07T18:14:51.694Z,3.63
2022-11-07T18:17:20.851Z,6.30
2022-11-07T18:19:49.468Z,3.47
2022-11-07T18:22:19.041Z,3.87
2022-11-07T18:24:47.640Z,3.40
2022-11-07T18:27:16.049Z,3.20
2022-11-07T18:29:44.424Z,4.47
2022-11-07T18:32:13.997Z,2.97
2022-11-07T18:34:43.462Z,2.57
2022-11-07T18:37:11.704Z,3.43
2022-11-07T18:39:41.509Z,3.40
2022-11-07T18:42:09.714Z,7.47
2022-11-07T18:44:38.082Z,4.43
2022-11-07T18:47:06.416Z,4.07
2022-11-07T18:49:34.645Z,3.40
2022-11-07T18:52:02.837Z,10.57
2022-11-07T18:54:31.051Z,7.25
2022-11-07T18:57:00.696Z,4.80
2022-11-07T18:59:29.061Z,2.47
2022-11-07T19:01:57.264Z,3.93
2022-11-07T19:04:25.513Z,3.60
2022-11-07T19:06:59.504Z,11.10
2022-11-07T19:09:29.543Z,4.27
2022-11-07T19:11:59.028Z,3.93
2022-11-07T19:14:29.828Z,2.90
2022-11-07T19:16:58.757Z,2.47
2022-11-07T19:19:26.936Z,2.23
2022-11-07T19:21:55.151Z,5.57
2022-11-07T19:24:23.397Z,4.77
2022-11-07T19:26:51.668Z,4.47
2022-11-07T19:29:20.035Z,2.30
2022-11-07T19:31:49.709Z,2.90
2022-11-07T19:34:18.203Z,3.53
2022-11-07T19:36:46.454Z,4.27
2022-11-07T19:39:14.646Z,1.97
2022-11-07T19:41:43.000Z,2.13
2022-11-07T19:44:11.822Z,2.87
2022-11-07T19:46:40.107Z,1.87
2022-11-07T19:49:09.806Z,1.20
2022-11-07T19:51:38.006Z,3.67
2022-11-07T19:54:07.665Z,2.20
2022-11-07T19:56:35.869Z,6.97
2022-11-07T19:59:04.168Z,8.20
2022-11-07T20:01:34.167Z,1.80
2022-11-07T20:04:03.614Z,1.87
2022-11-07T20:06:36.570Z,5.23
2022-11-07T20:09:07.312Z,1.63
2022-11-07T20:11:35.769Z,2.43
2022-11-07T20:14:04.422Z,3.70
2022-11-07T20:16:33.746Z,6.13
2022-11-07T20:19:02.312Z,2.40
2022-11-07T20:21:33.849Z,5.47
2022-11-07T20:24:02.131Z,2.80
2022-11-07T20:26:32.127Z,3.50
2022-11-07T20:29:00.738Z,2.43
2022-11-07T20:31:32.794Z,3.93
2022-11-07T20:34:03.742Z,4.00
2022-11-07T20:36:33.989Z,6.17
2022-11-07T20:39:03.466Z,2.33
2022-11-07T20:41:31.998Z,1.67
2022-11-07T20:44:03.932Z,2.70
2022-11-07T20:46:33.285Z,2.63
2022-11-07T20:49:01.780Z,3.60
2022-11-07T20:51:30.148Z,2.40
2022-11-07T20:54:00.236Z,3.80
2022-11-07T20:56:29.942Z,2.23
2022-11-07T20:58:59.138Z,5.10
2022-11-07T21:01:36.227Z,4.03
2022-11-07T21:04:05.217Z,2.50
2022-11-07T21:06:33.662Z,3.00
2022-11-07T21:09:03.729Z,2.63
2022-11-07T21:11:32.268Z,1.87
2022-11-07T21:14:00.676Z,2.53
2022-11-07T21:16:29.647Z,2.87
2022-11-07T21:18:58.046Z,4.40
2022-11-07T21:21:28.616Z,4.43
2022-11-07T21:23:58.734Z,4.10
2022-11-07T21:26:31.685Z,6.20
2022-11-07T21:29:00.676Z,4.03
2022-11-07T21:31:33.251Z,2.30
2022-11-07T21:34:01.502Z,3.57
2022-11-07T21:36:31.575Z,4.27
2022-11-07T21:39:01.394Z,5.10
2022-11-07T21:41:31.946Z,2.33
2022-11-07T21:44:00.671Z,2.57
2022-11-07T21:46:30.524Z,4.03
2022-11-07T21:49:00.117Z,3.73
2022-11-07T21:51:30.659Z,5.90
2022-11-07T21:54:00.157Z,7.63
2022-11-07T21:56:31.582Z,3.93
2022-11-07T21:59:01.775Z,4.40
2022-11-07T22:01:35.111Z,4.67
2022-11-07T22:04:07.502Z,3.33
2022-11-07T22:06:38.302Z,5.60
2022-11-07T22:09:07.846Z,8.90
2022-11-07T22:11:38.937Z,6.77
2022-11-07T22:14:07.271Z,7.63
2022-11-07T22:16:36.284Z,6.57
2022-11-07T22:19:09.711Z,8.27
2022-11-07T22:21:40.804Z,5.93
2022-11-07T22:24:09.717Z,5.53
2022-11-07T22:26:39.439Z,6.50
2022-11-07T22:29:07.645Z,7.13
2022-11-07T22:31:36.392Z,6.73
2022-11-07T22:34:04.695Z,7.03
2022-11-07T22:36:32.887Z,6.73
2022-11-07T22:39:00.995Z,6.40
2022-11-07T22:41:29.536Z,7.97
2022-11-07T22:43:59.743Z,8.87
2022-11-07T22:46:29.668Z,7.00
2022-11-07T22:48:59.024Z,5.53
2022-11-07T22:51:29.123Z,5.37
2022-11-07T22:53:59.065Z,5.60
2022-11-07T22:56:27.796Z,8.23
2022-11-07T22:58:56.242Z,6.00
2022-11-07T23:01:31.139Z,6.50
2022-11-07T23:04:00.230Z,5.73
2022-11-07T23:06:29.982Z,5.40
2022-11-07T23:09:00.296Z,4.70
2022-11-07T23:11:47.603Z,7.07
2022-11-07T23:14:18.783Z,6.03
2022-11-07T23:16:50.064Z,6.17
2022-11-07T23:19:20.907Z,6.90
2022-11-07T23:21:49.485Z,7.73
2022-11-07T23:24:18.267Z,7.97
2022-11-07T23:26:46.541Z,10.87
2022-11-07T23:29:19.462Z,7.50
2022-11-07T23:31:50.260Z,6.47
2022-11-07T23:34:19.791Z,4.43
2022-11-07T23:36:50.699Z,5.30
2022-11-07T23:39:20.720Z,7.80
2022-11-07T23:41:49.070Z,6.43
2022-11-07T23:44:17.318Z,7.40
2022-11-07T23:47:03.556Z,5.30
2022-11-07T23:49:50.336Z,5.03
2022-11-07T23:52:19.339Z,6.23
2022-11-07T23:55:04.911Z,9.73
2022-11-07T23:57:55.530Z,7.37
